createdAt,value
2017-09-10T00:00:30.773Z,0
2017-09-10T00:01:11.226Z,0
2017-09-10T00:01:51.677Z,0
2017-09-10T00:02:32.132Z,0
2017-09-10T00:03:12.588Z,0
2017-09-10T00:03:53.027Z,0
2017-09-10T00:04:33.477Z,0
2017-09-10T00:05:13.932Z,0
2017-09-10T00:05:54.382Z,0
2017-09-10T00:06:34.829Z,0
2017-09-10T00:07:15.280Z,0
2017-09-10T00:07:55.733Z,0
2017-09-10T00:08:36.192Z,0
2017-09-10T00:09:16.782Z,0
2017-09-10T00:09:57.241Z,0
2017-09-10T00:10:37.695Z,0
2017-09-10T00:11:18.143Z,0
2017-09-10T00:11:58.598Z,0
2017-09-10T00:12:39.052Z,0
2017-09-10T00:13:19.510Z,0
2017-09-10T00:13:59.965Z,0
2017-09-10T00:14:40.415Z,0
2017-09-10T00:15:20.870Z,0
2017-09-10T00:16:01.320Z,0
2017-09-10T00:16:41.769Z,0
2017-09-10T00:17:22.222Z,0
2017-09-10T00:18:02.676Z,0
2017-09-10T00:18:43.130Z,0
2017-09-10T00:19:23.585Z,0
2017-09-10T00:20:04.042Z,0
2017-09-10T00:20:44.495Z,0
2017-09-10T00:21:24.947Z,0
2017-09-10T00:22:05.407Z,0
2017-09-10T00:22:45.857Z,0
2017-09-10T00:23:26.293Z,0
2017-09-10T00:24:06.920Z,0
2017-09-10T00:24:47.299Z,0
2017-09-10T00:27:20.423Z,0
2017-09-10T00:28:01.043Z,0
2017-09-10T00:28:41.578Z,0
2017-09-10T00:29:21.948Z,0
2017-09-10T00:30:02.406Z,0
2017-09-10T00:30:42.861Z,0
2017-09-10T00:31:23.315Z,0
2017-09-10T00:32:03.766Z,0
2017-09-10T00:32:44.227Z,0
2017-09-10T00:33:24.696Z,0
2017-09-10T00:34:05.144Z,0
2017-09-10T00:34:45.650Z,0
2017-09-10T00:35:26.180Z,0
2017-09-10T00:36:06.633Z,0
2017-09-10T00:36:47.079Z,0
2017-09-10T00:37:27.539Z,0
2017-09-10T00:38:07.989Z,0
2017-09-10T00:38:48.441Z,0
2017-09-10T00:39:28.895Z,0
2017-09-10T00:40:09.337Z,0
2017-09-10T00:40:49.796Z,0
2017-09-10T00:41:30.546Z,0
2017-09-10T00:42:10.870Z,0
2017-09-10T00:42:51.328Z,0
2017-09-10T00:43:31.789Z,0
2017-09-10T00:44:12.256Z,0
2017-09-10T00:44:52.703Z,0
2017-09-10T00:45:33.172Z,0
2017-09-10T00:46:13.609Z,0
2017-09-10T00:46:54.037Z,0
2017-09-10T00:47:34.589Z,0
2017-09-10T00:48:14.994Z,0
2017-09-10T00:48:55.498Z,0
2017-09-10T00:49:36.094Z,0
2017-09-10T00:50:16.565Z,0
2017-09-10T00:50:57.048Z,0
2017-09-10T00:51:37.458Z,0
2017-09-10T00:52:17.921Z,0
2017-09-10T00:52:58.368Z,0
2017-09-10T00:53:38.846Z,0
2017-09-10T00:54:19.308Z,0
2017-09-10T00:54:59.771Z,0
2017-09-10T00:55:40.219Z,0
2017-09-10T00:56:20.742Z,0
2017-09-10T00:57:01.202Z,0
2017-09-10T00:57:41.709Z,0
2017-09-10T00:58:22.125Z,0
2017-09-10T00:59:02.584Z,0
2017-09-10T00:59:43.024Z,0
2017-09-10T01:00:23.481Z,0
2017-09-10T01:01:03.906Z,0
2017-09-10T01:01:44.374Z,0
2017-09-10T01:02:24.812Z,0
2017-09-10T01:03:05.266Z,0
2017-09-10T01:03:45.704Z,0
2017-09-10T01:04:26.161Z,0
2017-09-10T01:05:06.659Z,0
2017-09-10T01:05:47.103Z,0
2017-09-10T01:06:27.541Z,0
2017-09-10T01:07:07.996Z,0
2017-09-10T01:07:48.462Z,0
2017-09-10T01:08:28.915Z,0
2017-09-10T01:09:09.461Z,0
2017-09-10T01:09:49.916Z,0
2017-09-10T01:10:30.453Z,0
2017-09-10T01:11:10.928Z,0
2017-09-10T01:11:51.389Z,0
2017-09-10T01:12:31.837Z,0
2017-09-10T01:13:12.298Z,0
2017-09-10T01:13:52.754Z,0
2017-09-10T01:14:33.203Z,0
2017-09-10T01:15:13.655Z,0
2017-09-10T01:15:54.109Z,0
2017-09-10T01:16:34.564Z,0
2017-09-10T01:17:15.017Z,0
2017-09-10T01:17:55.472Z,0
2017-09-10T01:18:35.926Z,0
2017-09-10T01:19:16.455Z,0
2017-09-10T01:19:56.896Z,0
2017-09-10T01:20:37.347Z,0
2017-09-10T01:21:17.802Z,0
2017-09-10T01:21:58.256Z,0
2017-09-10T01:22:38.712Z,0
2017-09-10T01:23:19.162Z,0
2017-09-10T01:23:59.613Z,0
2017-09-10T01:24:40.151Z,0
2017-09-10T01:25:20.604Z,0
2017-09-10T01:26:01.192Z,0
2017-09-10T01:26:41.656Z,0
2017-09-10T01:27:22.032Z,0
2017-09-10T01:28:02.483Z,0
2017-09-10T01:28:42.940Z,0
2017-09-10T01:29:23.395Z,0
2017-09-10T01:30:03.858Z,0
2017-09-10T01:30:44.340Z,0
2017-09-10T01:31:24.758Z,0
2017-09-10T01:32:05.214Z,0
2017-09-10T01:32:45.665Z,0
2017-09-10T01:33:26.215Z,0
2017-09-10T01:34:06.677Z,0
2017-09-10T01:34:47.134Z,0
2017-09-10T01:35:27.585Z,0
2017-09-10T01:36:08.042Z,0
2017-09-10T01:36:48.492Z,0
2017-09-10T01:37:28.947Z,0
2017-09-10T01:38:09.403Z,0
2017-09-10T01:38:49.852Z,0
2017-09-10T01:39:30.305Z,0
2017-09-10T01:40:10.758Z,0
2017-09-10T01:40:51.209Z,0
2017-09-10T01:41:31.656Z,0
2017-09-10T01:42:12.108Z,0
2017-09-10T01:42:52.557Z,0
2017-09-10T01:43:33.008Z,0
2017-09-10T01:44:13.464Z,0
2017-09-10T01:44:53.912Z,0
2017-09-10T01:45:34.366Z,0
2017-09-10T01:46:14.842Z,0
2017-09-10T01:46:55.276Z,0
2017-09-10T01:47:35.733Z,0
2017-09-10T01:48:16.205Z,0
2017-09-10T01:48:56.656Z,0
2017-09-10T01:49:37.115Z,0
2017-09-10T01:50:17.558Z,0
2017-09-10T01:50:58.014Z,0
2017-09-10T01:51:38.472Z,0
2017-09-10T01:52:18.931Z,0
2017-09-10T01:52:59.386Z,0
2017-09-10T01:53:39.845Z,0
2017-09-10T01:54:20.307Z,0
2017-09-10T01:55:00.762Z,0
2017-09-10T01:55:41.221Z,0
2017-09-10T01:56:21.671Z,0
2017-09-10T01:57:02.139Z,0
2017-09-10T01:57:42.592Z,0
2017-09-10T01:58:23.029Z,0
2017-09-10T01:59:03.483Z,0
2017-09-10T01:59:43.945Z,0
2017-09-10T02:00:24.400Z,0
2017-09-10T02:01:04.887Z,0
2017-09-10T02:01:45.335Z,0
2017-09-10T02:02:25.795Z,0
2017-09-10T02:03:06.253Z,0
2017-09-10T02:03:46.710Z,0
2017-09-10T02:04:27.160Z,0
2017-09-10T02:05:07.616Z,0
2017-09-10T02:05:48.071Z,0
2017-09-10T02:06:28.526Z,0
2017-09-10T02:07:09.085Z,0
2017-09-10T02:07:49.540Z,0
2017-09-10T02:08:29.998Z,0
2017-09-10T02:09:10.457Z,0
2017-09-10T02:09:50.915Z,0
2017-09-10T02:10:31.370Z,0
2017-09-10T02:11:11.809Z,0
2017-09-10T02:11:52.262Z,0
2017-09-10T02:12:32.721Z,0
2017-09-10T02:13:13.170Z,0
2017-09-10T02:13:53.626Z,0
2017-09-10T02:14:34.077Z,0
2017-09-10T02:15:14.529Z,0
2017-09-10T02:15:54.983Z,0
2017-09-10T02:16:35.437Z,0
2017-09-10T02:17:15.897Z,0
2017-09-10T02:17:56.350Z,0
2017-09-10T02:18:36.804Z,0
2017-09-10T02:19:17.259Z,0
2017-09-10T02:19:57.711Z,0
2017-09-10T02:20:38.153Z,0
2017-09-10T02:21:18.607Z,0
2017-09-10T02:21:59.066Z,0
2017-09-10T02:22:39.515Z,0
2017-09-10T02:23:19.975Z,0
2017-09-10T02:24:00.427Z,0
2017-09-10T02:24:40.881Z,0
2017-09-10T02:26:58.672Z,0
2017-09-10T02:27:39.118Z,0
2017-09-10T02:28:19.568Z,0
2017-09-10T02:29:00.020Z,0
2017-09-10T02:29:40.471Z,0
2017-09-10T02:30:20.922Z,0
2017-09-10T02:31:01.379Z,0
2017-09-10T02:31:41.900Z,0
2017-09-10T02:32:22.379Z,0
2017-09-10T02:33:02.830Z,0
2017-09-10T02:33:43.289Z,0
2017-09-10T02:34:23.740Z,0
2017-09-10T02:35:04.193Z,0
2017-09-10T02:35:44.647Z,0
2017-09-10T02:36:25.103Z,0
2017-09-10T02:37:05.608Z,0
2017-09-10T02:37:46.059Z,0
2017-09-10T02:38:26.528Z,0
2017-09-10T02:39:06.977Z,0
2017-09-10T02:39:47.428Z,0
2017-09-10T02:40:27.885Z,0
2017-09-10T02:41:08.345Z,0
2017-09-10T02:41:48.811Z,0
2017-09-10T02:42:29.265Z,0
2017-09-10T02:43:09.717Z,0
2017-09-10T02:43:50.181Z,0
2017-09-10T02:44:30.629Z,0
2017-09-10T02:45:11.085Z,0
2017-09-10T02:45:51.557Z,0
2017-09-10T02:46:32.013Z,0
2017-09-10T02:47:12.469Z,0
2017-09-10T02:47:52.922Z,0
2017-09-10T02:48:33.376Z,0
2017-09-10T02:49:13.834Z,0
2017-09-10T02:49:54.287Z,0
2017-09-10T02:50:34.734Z,0
2017-09-10T02:51:15.182Z,0
2017-09-10T02:51:55.645Z,0
2017-09-10T02:52:36.097Z,0
2017-09-10T02:53:16.555Z,0
2017-09-10T02:53:57.004Z,0
2017-09-10T02:54:37.457Z,0
2017-09-10T02:55:17.905Z,0
2017-09-10T02:55:58.372Z,0
2017-09-10T02:56:38.831Z,0
2017-09-10T02:57:19.284Z,0
2017-09-10T02:57:59.742Z,0
2017-09-10T02:58:40.194Z,0
2017-09-10T02:59:20.651Z,0
2017-09-10T03:00:01.113Z,0
2017-09-10T03:00:41.561Z,0
2017-09-10T03:01:22.014Z,0
2017-09-10T03:02:02.473Z,0
2017-09-10T03:02:42.931Z,0
2017-09-10T03:03:23.386Z,0
2017-09-10T03:04:03.842Z,0
2017-09-10T03:04:44.323Z,0
2017-09-10T03:05:24.752Z,0
2017-09-10T03:06:05.210Z,0
2017-09-10T03:06:45.668Z,0
2017-09-10T03:07:26.123Z,0
2017-09-10T03:08:06.579Z,0
2017-09-10T03:08:47.046Z,0
2017-09-10T03:09:27.497Z,0
2017-09-10T03:10:07.953Z,0
2017-09-10T03:10:48.415Z,0
2017-09-10T03:11:28.874Z,0
2017-09-10T03:12:09.327Z,0
2017-09-10T03:12:49.775Z,0
2017-09-10T03:13:30.227Z,0
2017-09-10T03:14:10.685Z,0
2017-09-10T03:14:51.141Z,0
2017-09-10T03:15:31.596Z,0
2017-09-10T03:16:12.050Z,0
2017-09-10T03:16:52.500Z,0
2017-09-10T03:17:32.958Z,0
2017-09-10T03:18:13.415Z,0
2017-09-10T03:18:53.878Z,0
2017-09-10T03:19:34.326Z,0
2017-09-10T03:20:14.794Z,0
2017-09-10T03:20:55.241Z,0
2017-09-10T03:21:35.697Z,0
2017-09-10T03:22:16.151Z,0
2017-09-10T03:22:56.604Z,0
2017-09-10T03:23:37.063Z,0
2017-09-10T03:24:17.516Z,0
2017-09-10T03:24:57.969Z,0
2017-09-10T03:25:38.410Z,0
2017-09-10T03:26:18.865Z,0
2017-09-10T03:26:59.320Z,0
2017-09-10T03:27:39.844Z,0
2017-09-10T03:28:20.306Z,0
2017-09-10T03:29:00.765Z,0
2017-09-10T03:29:41.292Z,0
2017-09-10T03:30:21.745Z,0
2017-09-10T03:31:02.267Z,0
2017-09-10T03:31:42.739Z,0
2017-09-10T03:32:23.200Z,0
2017-09-10T03:33:03.718Z,0
2017-09-10T03:33:44.150Z,0
2017-09-10T03:34:24.594Z,0
2017-09-10T03:35:05.055Z,0
2017-09-10T03:35:45.504Z,0
2017-09-10T03:36:25.952Z,0
2017-09-10T03:37:06.398Z,0
2017-09-10T03:37:46.844Z,0
2017-09-10T03:38:27.292Z,0
2017-09-10T03:39:07.749Z,0
2017-09-10T03:39:48.218Z,0
2017-09-10T03:40:28.664Z,0
2017-09-10T03:41:09.116Z,0
2017-09-10T03:41:49.572Z,0
2017-09-10T03:42:30.032Z,0
2017-09-10T03:43:10.480Z,0
2017-09-10T03:43:50.933Z,0
2017-09-10T03:44:31.387Z,0
2017-09-10T03:45:11.936Z,0
2017-09-10T03:45:52.295Z,0
2017-09-10T03:46:32.758Z,0
2017-09-10T03:47:13.211Z,0
2017-09-10T03:47:53.662Z,0
2017-09-10T03:48:34.121Z,0
2017-09-10T03:49:14.578Z,0
2017-09-10T03:49:55.037Z,0
2017-09-10T03:50:35.484Z,0
2017-09-10T03:51:15.940Z,0
2017-09-10T03:51:56.394Z,0
2017-09-10T03:52:36.849Z,0
2017-09-10T03:53:17.359Z,0
2017-09-10T03:53:57.808Z,0
2017-09-10T03:54:38.283Z,0
2017-09-10T03:55:18.725Z,0
2017-09-10T03:55:59.179Z,0
2017-09-10T03:56:39.635Z,0
2017-09-10T03:57:20.093Z,0
2017-09-10T03:58:00.550Z,0
2017-09-10T03:58:41.000Z,0
2017-09-10T03:59:21.459Z,0
2017-09-10T04:00:01.919Z,0
2017-09-10T04:00:42.367Z,0
2017-09-10T04:01:22.832Z,0
2017-09-10T04:02:03.282Z,0
2017-09-10T04:02:43.745Z,0
2017-09-10T04:03:24.200Z,0
2017-09-10T04:04:04.646Z,0
2017-09-10T04:04:45.102Z,0
2017-09-10T04:05:25.549Z,0
2017-09-10T04:06:06.004Z,0
2017-09-10T04:06:46.441Z,0
2017-09-10T04:07:26.892Z,0
2017-09-10T04:08:07.350Z,0
2017-09-10T04:08:47.807Z,0
2017-09-10T04:09:28.266Z,0
2017-09-10T04:10:08.720Z,0
2017-09-10T04:10:49.173Z,0
2017-09-10T04:11:29.628Z,0
2017-09-10T04:12:10.084Z,0
2017-09-10T04:12:50.542Z,0
2017-09-10T04:13:31.000Z,0
2017-09-10T04:14:11.461Z,0
2017-09-10T04:14:51.924Z,0
2017-09-10T04:15:32.376Z,0
2017-09-10T04:16:12.824Z,0
2017-09-10T04:16:53.290Z,0
2017-09-10T04:17:33.740Z,0
2017-09-10T04:18:14.192Z,0
2017-09-10T04:18:54.639Z,0
2017-09-10T04:19:35.096Z,0
2017-09-10T04:20:15.550Z,0
2017-09-10T04:20:56.004Z,0
2017-09-10T04:21:36.459Z,0
2017-09-10T04:22:16.914Z,0
2017-09-10T04:22:57.371Z,0
2017-09-10T04:23:37.835Z,0
2017-09-10T04:24:18.285Z,0
2017-09-10T04:24:58.741Z,0
2017-09-10T04:25:39.200Z,0
2017-09-10T04:26:19.645Z,0
2017-09-10T04:27:00.104Z,0
2017-09-10T04:27:40.571Z,0
2017-09-10T04:28:21.029Z,0
2017-09-10T04:29:01.503Z,0
2017-09-10T04:29:41.970Z,0
2017-09-10T04:30:22.402Z,0
2017-09-10T04:31:02.857Z,0
2017-09-10T04:31:43.314Z,0
2017-09-10T04:32:23.768Z,0
2017-09-10T04:33:04.364Z,0
2017-09-10T04:33:44.833Z,0
2017-09-10T04:34:25.289Z,0
2017-09-10T04:35:05.749Z,0
2017-09-10T04:35:46.201Z,0
2017-09-10T04:36:26.661Z,0
2017-09-10T04:37:07.117Z,0
2017-09-10T04:37:47.599Z,0
2017-09-10T04:38:28.025Z,0
2017-09-10T04:39:08.530Z,0
2017-09-10T04:39:49.020Z,0
2017-09-10T04:40:29.479Z,0
2017-09-10T04:41:09.968Z,0
2017-09-10T04:41:50.427Z,0
2017-09-10T04:42:30.881Z,0
2017-09-10T04:43:11.334Z,0
2017-09-10T04:43:51.805Z,0
2017-09-10T04:44:32.266Z,0
2017-09-10T04:45:12.719Z,0
2017-09-10T04:45:53.175Z,0
2017-09-10T04:46:33.627Z,0
2017-09-10T04:47:14.082Z,0
2017-09-10T04:47:54.531Z,0
2017-09-10T04:48:34.979Z,0
2017-09-10T04:49:15.420Z,0
2017-09-10T04:49:55.902Z,0
2017-09-10T04:50:36.360Z,0
2017-09-10T04:51:16.816Z,0
2017-09-10T04:51:57.288Z,0
2017-09-10T04:52:37.733Z,0
2017-09-10T04:53:18.186Z,0
2017-09-10T04:53:58.640Z,0
2017-09-10T04:54:39.093Z,0
2017-09-10T04:55:19.554Z,0
2017-09-10T04:56:00.011Z,0
2017-09-10T04:56:40.466Z,0
2017-09-10T04:57:20.918Z,0
2017-09-10T04:58:01.500Z,0
2017-09-10T04:58:41.965Z,0
2017-09-10T04:59:22.416Z,0
2017-09-10T05:00:03.071Z,0
2017-09-10T05:00:43.496Z,0
2017-09-10T05:01:23.955Z,0
2017-09-10T05:02:04.761Z,0
2017-09-10T05:02:45.714Z,0
2017-09-10T05:03:26.175Z,0
2017-09-10T05:04:06.641Z,0
2017-09-10T05:04:47.077Z,0
2017-09-10T05:05:27.609Z,0
2017-09-10T05:06:08.057Z,0
2017-09-10T05:06:48.514Z,0
2017-09-10T05:07:28.963Z,0
2017-09-10T05:08:09.419Z,0
2017-09-10T05:08:49.874Z,0
2017-09-10T05:09:30.328Z,0
2017-09-10T05:10:10.790Z,0
2017-09-10T05:10:51.248Z,0
2017-09-10T05:11:31.685Z,0
2017-09-10T05:12:12.147Z,0
2017-09-10T05:12:52.598Z,0
2017-09-10T05:13:33.059Z,0
2017-09-10T05:14:13.525Z,0
2017-09-10T05:14:53.980Z,0
2017-09-10T05:15:34.435Z,0
2017-09-10T05:16:14.885Z,0
2017-09-10T05:16:55.343Z,0
2017-09-10T05:17:35.799Z,0
2017-09-10T05:18:16.340Z,0
2017-09-10T05:18:56.798Z,0
2017-09-10T05:19:37.253Z,0
2017-09-10T05:20:17.909Z,4
2017-09-10T05:20:58.374Z,4
2017-09-10T05:21:38.832Z,4
2017-09-10T05:22:19.320Z,4
2017-09-10T05:22:59.772Z,4
2017-09-10T05:23:40.227Z,4
2017-09-10T05:24:20.702Z,4
2017-09-10T05:25:01.161Z,4
2017-09-10T05:25:41.612Z,0
2017-09-10T05:26:22.154Z,0
2017-09-10T05:27:02.609Z,0
2017-09-10T05:27:43.059Z,0
2017-09-10T05:28:23.514Z,0
2017-09-10T05:29:03.977Z,0
2017-09-10T05:29:44.433Z,0
2017-09-10T05:30:24.891Z,0
2017-09-10T05:31:05.351Z,0
2017-09-10T05:31:45.813Z,0
2017-09-10T05:32:26.267Z,0
2017-09-10T05:33:06.715Z,0
2017-09-10T05:33:47.182Z,0
2017-09-10T05:34:27.629Z,0
2017-09-10T05:35:08.073Z,0
2017-09-10T05:35:48.532Z,0
2017-09-10T05:36:28.979Z,0
2017-09-10T05:37:09.455Z,0
2017-09-10T05:37:49.920Z,0
2017-09-10T05:38:30.374Z,0
2017-09-10T05:39:10.837Z,0
2017-09-10T05:39:51.350Z,0
2017-09-10T05:40:31.808Z,0
2017-09-10T05:41:12.266Z,0
2017-09-10T05:41:52.835Z,0
2017-09-10T05:42:33.292Z,0
2017-09-10T05:43:13.753Z,0
2017-09-10T05:43:54.208Z,0
2017-09-10T05:44:34.668Z,0
2017-09-10T05:45:15.120Z,0
2017-09-10T05:45:55.583Z,0
2017-09-10T05:46:36.041Z,0
2017-09-10T05:47:16.528Z,0
2017-09-10T05:47:56.986Z,0
2017-09-10T05:48:37.436Z,0
2017-09-10T05:49:17.897Z,0
2017-09-10T05:49:58.347Z,0
2017-09-10T05:50:38.794Z,0
2017-09-10T05:51:19.263Z,0
2017-09-10T05:51:59.716Z,0
2017-09-10T05:52:40.173Z,4
2017-09-10T05:53:20.636Z,4
2017-09-10T05:54:01.091Z,4
2017-09-10T05:54:41.557Z,4
2017-09-10T05:55:21.995Z,4
2017-09-10T05:56:02.456Z,4
2017-09-10T05:56:42.920Z,4
2017-09-10T05:57:23.371Z,8
2017-09-10T05:58:03.800Z,4
2017-09-10T05:58:44.266Z,4
2017-09-10T05:59:24.715Z,4
2017-09-10T06:00:05.166Z,8
2017-09-10T06:00:45.609Z,8
2017-09-10T06:01:26.076Z,8
2017-09-10T06:02:06.532Z,12
2017-09-10T06:02:46.993Z,12
2017-09-10T06:03:27.457Z,12
2017-09-10T06:04:07.912Z,12
2017-09-10T06:04:48.363Z,12
2017-09-10T06:05:28.831Z,12
2017-09-10T06:06:09.278Z,12
2017-09-10T06:06:49.735Z,16
2017-09-10T06:07:30.184Z,12
2017-09-10T06:08:10.643Z,16
2017-09-10T06:08:51.131Z,16
2017-09-10T06:09:31.602Z,16
2017-09-10T06:10:12.053Z,16
2017-09-10T06:10:52.502Z,12
2017-09-10T06:11:33.015Z,16
2017-09-10T06:12:13.537Z,16
2017-09-10T06:12:53.967Z,16
2017-09-10T06:13:34.432Z,16
2017-09-10T06:14:14.899Z,16
2017-09-10T06:14:55.340Z,16
2017-09-10T06:15:35.802Z,16
2017-09-10T06:16:16.257Z,16
2017-09-10T06:16:56.713Z,16
2017-09-10T06:19:29.777Z,20
2017-09-10T06:20:10.281Z,20
2017-09-10T06:20:50.737Z,16
2017-09-10T06:21:31.185Z,20
2017-09-10T06:22:11.675Z,16
2017-09-10T06:22:52.128Z,20
2017-09-10T06:25:09.978Z,20
2017-09-10T06:25:50.531Z,20
2017-09-10T06:26:30.996Z,20
2017-09-10T06:27:11.458Z,20
2017-09-10T06:27:51.893Z,20
2017-09-10T06:28:32.412Z,20
2017-09-10T06:29:12.863Z,24
2017-09-10T06:29:53.321Z,24
2017-09-10T06:30:33.770Z,24
2017-09-10T06:31:14.228Z,24
2017-09-10T06:31:54.694Z,24
2017-09-10T06:32:35.155Z,24
2017-09-10T06:33:15.607Z,20
2017-09-10T06:33:56.061Z,24
2017-09-10T06:34:36.509Z,24
2017-09-10T06:35:16.966Z,24
2017-09-10T06:35:57.430Z,24
2017-09-10T06:36:38.074Z,24
2017-09-10T06:37:18.542Z,24
2017-09-10T06:37:58.986Z,28
2017-09-10T06:38:39.432Z,24
2017-09-10T06:39:19.893Z,24
2017-09-10T06:40:00.348Z,28
2017-09-10T06:40:40.798Z,28
2017-09-10T06:41:21.250Z,28
2017-09-10T06:42:01.701Z,28
2017-09-10T06:42:42.150Z,28
2017-09-10T06:43:22.651Z,28
2017-09-10T06:44:03.099Z,28
2017-09-10T06:44:43.659Z,28
2017-09-10T06:46:41.366Z,32
2017-09-10T06:47:21.802Z,28
2017-09-10T06:48:02.251Z,32
2017-09-10T06:48:42.699Z,28
2017-09-10T06:49:23.160Z,32
2017-09-10T06:50:03.608Z,32
2017-09-10T06:50:44.073Z,32
2017-09-10T06:51:24.523Z,32
2017-09-10T06:52:04.982Z,32
2017-09-10T06:52:45.437Z,36
2017-09-10T06:53:25.984Z,32
2017-09-10T06:55:23.672Z,40
2017-09-10T06:56:04.124Z,36
2017-09-10T06:56:44.580Z,36
2017-09-10T06:57:25.031Z,32
2017-09-10T06:58:05.491Z,24
2017-09-10T06:58:45.940Z,24
2017-09-10T06:59:26.392Z,36
2017-09-10T07:00:06.838Z,40
2017-09-10T07:00:47.311Z,44
2017-09-10T07:01:27.770Z,40
2017-09-10T07:02:08.215Z,28
2017-09-10T07:02:48.674Z,24
2017-09-10T07:03:29.141Z,16
2017-09-10T07:04:09.572Z,16
2017-09-10T07:04:50.033Z,20
2017-09-10T07:05:30.545Z,24
2017-09-10T07:06:11.028Z,32
2017-09-10T07:06:51.477Z,12
2017-09-10T07:07:31.939Z,12
2017-09-10T07:08:12.384Z,12
2017-09-10T07:08:52.831Z,12
2017-09-10T07:09:33.290Z,12
2017-09-10T07:10:13.718Z,16
2017-09-10T07:10:54.162Z,16
2017-09-10T07:11:34.607Z,16
2017-09-10T07:12:15.069Z,52
2017-09-10T07:12:55.528Z,52
2017-09-10T07:13:35.972Z,44
2017-09-10T07:14:16.422Z,48
2017-09-10T07:14:56.880Z,44
2017-09-10T07:15:37.334Z,44
2017-09-10T07:16:17.786Z,20
2017-09-10T07:16:58.237Z,52
2017-09-10T07:19:26.718Z,48
2017-09-10T07:20:07.177Z,52
2017-09-10T07:20:47.650Z,52
2017-09-10T07:21:28.052Z,56
2017-09-10T07:22:08.504Z,56
2017-09-10T07:22:48.950Z,44
2017-09-10T07:23:29.425Z,32
2017-09-10T07:24:09.920Z,28
2017-09-10T07:24:50.408Z,56
2017-09-10T07:25:30.862Z,24
2017-09-10T07:26:11.304Z,52
2017-09-10T07:26:51.782Z,52
2017-09-10T07:27:32.198Z,56
2017-09-10T07:28:12.642Z,48
2017-09-10T07:28:53.100Z,52
2017-09-10T07:29:33.513Z,56
2017-09-10T07:30:13.961Z,52
2017-09-10T07:30:54.406Z,56
2017-09-10T07:31:34.873Z,52
2017-09-10T07:32:15.302Z,56
2017-09-10T07:32:56.038Z,56
2017-09-10T07:33:36.482Z,56
2017-09-10T07:34:16.975Z,40
2017-09-10T07:34:57.362Z,24
2017-09-10T07:36:55.062Z,60
2017-09-10T07:39:12.946Z,64
2017-09-10T07:39:53.391Z,48
2017-09-10T07:40:33.843Z,64
2017-09-10T07:41:14.297Z,68
2017-09-10T07:41:54.757Z,64
2017-09-10T07:42:35.211Z,24
2017-09-10T07:43:15.667Z,20
2017-09-10T07:43:56.103Z,24
2017-09-10T07:44:36.555Z,40
2017-09-10T07:45:16.973Z,20
2017-09-10T07:45:57.454Z,20
2017-09-10T07:46:38.015Z,20
2017-09-10T07:47:18.643Z,16
2017-09-10T07:47:59.149Z,68
2017-09-10T07:48:39.610Z,28
2017-09-10T07:49:20.278Z,16
2017-09-10T07:50:00.728Z,16
2017-09-10T07:50:41.210Z,16
2017-09-10T07:51:21.827Z,16
2017-09-10T07:52:02.276Z,16
2017-09-10T07:52:42.895Z,16
2017-09-10T07:53:23.763Z,16
2017-09-10T07:54:04.190Z,16
2017-09-10T07:54:44.632Z,16
2017-09-10T07:55:25.159Z,16
2017-09-10T07:56:05.661Z,16
2017-09-10T07:56:46.212Z,20
2017-09-10T07:57:27.103Z,20
2017-09-10T07:58:07.539Z,16
2017-09-10T07:58:47.992Z,20
2017-09-10T07:59:28.455Z,20
2017-09-10T08:02:01.530Z,76
2017-09-10T08:02:41.991Z,28
2017-09-10T08:03:22.448Z,60
2017-09-10T08:04:02.919Z,28
2017-09-10T08:04:43.410Z,76
2017-09-10T08:05:23.970Z,80
2017-09-10T08:06:04.494Z,24
2017-09-10T08:06:44.950Z,28
2017-09-10T08:07:25.449Z,44
2017-09-10T08:08:05.892Z,84
2017-09-10T08:08:46.376Z,80
2017-09-10T08:09:26.789Z,40
2017-09-10T08:10:07.337Z,84
2017-09-10T08:10:47.788Z,60
2017-09-10T08:11:28.287Z,88
2017-09-10T08:12:08.721Z,84
2017-09-10T08:12:49.187Z,76
2017-09-10T08:13:29.638Z,76
2017-09-10T08:14:10.108Z,28
2017-09-10T08:14:50.567Z,36
2017-09-10T08:15:31.038Z,76
2017-09-10T08:16:11.463Z,84
2017-09-10T08:16:51.925Z,80
2017-09-10T08:17:32.363Z,60
2017-09-10T08:18:12.818Z,24
2017-09-10T08:18:53.277Z,24
2017-09-10T08:19:33.732Z,40
2017-09-10T08:20:14.178Z,24
2017-09-10T08:20:54.627Z,24
2017-09-10T08:23:12.534Z,24
2017-09-10T08:23:52.985Z,24
2017-09-10T08:24:33.435Z,36
2017-09-10T08:25:13.894Z,40
2017-09-10T08:25:54.350Z,88
2017-09-10T08:26:34.807Z,28
2017-09-10T08:27:15.259Z,84
2017-09-10T08:27:55.711Z,84
2017-09-10T08:28:36.161Z,40
2017-09-10T08:29:16.732Z,68
2017-09-10T08:29:57.203Z,40
2017-09-10T08:30:37.660Z,16
2017-09-10T08:31:18.121Z,16
2017-09-10T08:31:58.580Z,16
2017-09-10T08:32:39.113Z,20
2017-09-10T08:33:19.556Z,28
2017-09-10T08:33:59.997Z,44
2017-09-10T08:34:40.449Z,28
2017-09-10T08:35:20.896Z,72
2017-09-10T08:36:01.339Z,32
2017-09-10T08:36:41.813Z,92
2017-09-10T08:37:22.316Z,92
2017-09-10T08:38:02.763Z,76
2017-09-10T08:38:43.225Z,56
2017-09-10T08:39:23.894Z,84
2017-09-10T08:40:04.251Z,36
2017-09-10T08:40:44.703Z,64
2017-09-10T08:41:25.187Z,68
2017-09-10T08:42:05.655Z,28
2017-09-10T08:42:46.118Z,20
2017-09-10T08:43:26.736Z,24
2017-09-10T08:44:07.092Z,24
2017-09-10T08:46:20.068Z,72
2017-09-10T08:47:00.521Z,40
2017-09-10T08:47:40.969Z,60
2017-09-10T08:48:21.421Z,100
2017-09-10T08:49:01.898Z,84
2017-09-10T08:49:42.392Z,28
2017-09-10T08:50:23.013Z,24
2017-09-10T08:51:03.296Z,60
2017-09-10T08:51:43.782Z,24
2017-09-10T08:52:24.253Z,24
2017-09-10T08:53:04.690Z,28
2017-09-10T08:53:45.138Z,28
2017-09-10T08:54:25.596Z,100
2017-09-10T08:55:06.050Z,32
2017-09-10T08:55:46.549Z,20
2017-09-10T08:56:27.198Z,20
2017-09-10T08:57:07.873Z,32
2017-09-10T08:57:48.372Z,24
2017-09-10T09:00:21.726Z,24
2017-09-10T09:01:02.185Z,28
2017-09-10T09:03:14.953Z,20
2017-09-10T09:03:55.407Z,20
2017-09-10T09:04:35.852Z,20
2017-09-10T09:05:16.286Z,48
2017-09-10T09:05:56.742Z,100
2017-09-10T09:08:24.771Z,100
2017-09-10T09:09:05.221Z,96
2017-09-10T09:09:45.718Z,92
2017-09-10T09:10:26.177Z,56
2017-09-10T09:11:06.628Z,92
2017-09-10T09:11:47.094Z,20
2017-09-10T09:12:27.536Z,20
2017-09-10T09:13:07.997Z,96
2017-09-10T09:13:48.452Z,96
2017-09-10T09:14:28.912Z,96
2017-09-10T09:15:09.369Z,96
2017-09-10T09:15:49.823Z,4752
2017-09-10T09:16:30.276Z,4716
2017-09-10T09:17:10.737Z,3440
2017-09-10T09:17:51.188Z,696
2017-09-10T09:18:31.637Z,984
2017-09-10T09:19:12.095Z,4600
2017-09-10T09:19:52.575Z,4716
2017-09-10T09:20:32.987Z,4692
2017-09-10T09:21:13.441Z,4236
2017-09-10T09:21:53.899Z,4216
2017-09-10T09:22:34.472Z,4872
2017-09-10T09:23:14.935Z,4820
2017-09-10T09:23:55.383Z,4764
2017-09-10T09:24:36.303Z,4824
2017-09-10T09:25:16.756Z,4884
2017-09-10T09:25:57.212Z,4860
2017-09-10T09:26:37.671Z,4868
2017-09-10T09:27:18.132Z,4864
2017-09-10T09:27:58.589Z,4856
2017-09-10T09:28:39.044Z,4816
2017-09-10T09:29:19.505Z,4812
2017-09-10T09:29:59.961Z,4848
2017-09-10T09:30:40.469Z,4816
2017-09-10T09:31:20.927Z,4816
2017-09-10T09:32:01.489Z,5008
2017-09-10T09:32:41.957Z,4244
2017-09-10T09:33:22.416Z,2760
2017-09-10T09:34:02.860Z,2528
2017-09-10T09:34:43.318Z,4928
2017-09-10T09:35:23.769Z,4972
2017-09-10T09:36:04.258Z,3976
2017-09-10T09:36:44.715Z,5028
2017-09-10T09:37:25.204Z,4964
2017-09-10T09:38:05.633Z,4936
2017-09-10T09:38:46.085Z,5004
2017-09-10T09:39:26.531Z,2964
2017-09-10T09:40:06.983Z,4992
2017-09-10T09:40:47.464Z,4996
2017-09-10T09:41:27.921Z,4980
2017-09-10T09:42:08.548Z,4956
2017-09-10T09:42:49.002Z,4960
2017-09-10T09:43:29.465Z,4924
2017-09-10T09:44:09.905Z,4988
2017-09-10T09:44:50.361Z,5004
2017-09-10T09:45:30.799Z,4976
2017-09-10T09:46:11.259Z,4956
2017-09-10T09:46:51.714Z,4960
2017-09-10T09:47:32.797Z,4920
2017-09-10T09:48:13.243Z,4932
2017-09-10T09:48:53.701Z,4884
2017-09-10T09:49:34.155Z,4876
2017-09-10T09:50:14.605Z,4904
2017-09-10T09:50:55.061Z,4880
2017-09-10T09:51:35.577Z,4832
2017-09-10T09:54:03.793Z,4864
2017-09-10T09:54:44.250Z,4880
2017-09-10T09:55:24.702Z,4884
2017-09-10T09:56:05.309Z,4884
2017-09-10T09:56:45.756Z,4900
2017-09-10T09:57:26.217Z,4876
2017-09-10T09:58:06.665Z,4848
2017-09-10T09:58:47.124Z,4852
2017-09-10T09:59:27.558Z,4832
2017-09-10T10:00:08.018Z,4820
2017-09-10T10:00:48.476Z,4816
2017-09-10T10:01:28.936Z,4784
2017-09-10T10:02:09.385Z,4788
2017-09-10T10:02:49.836Z,4772
2017-09-10T10:03:30.296Z,4768
2017-09-10T10:04:10.731Z,4764
2017-09-10T10:04:51.179Z,4788
2017-09-10T10:05:31.651Z,4788
2017-09-10T10:06:12.085Z,4768
2017-09-10T10:06:52.566Z,4736
2017-09-10T10:07:33.031Z,4700
2017-09-10T10:08:13.481Z,4752
2017-09-10T10:08:53.986Z,4768
2017-09-10T10:09:34.412Z,4748
2017-09-10T10:10:14.866Z,4732
2017-09-10T10:12:27.699Z,4744
2017-09-10T10:13:08.145Z,4704
2017-09-10T10:13:48.586Z,4684